Time;durP1;ratioP1;P1;durP2;ratioP2;P2;SDS_P1;SDS_P2;PMS_P1;PMS_P2;Temp;Humidity;BMP_temperature;BMP_pressure;BME280_temperature;BME280_humidity;BME280_pressure;Samples;Min_cycle;Max_cycle;Signal;HPM_P1;HPM_P2
2022/06/22 00:00:38;;;;;;;0.40;0.20;;;;;;;15.60;63.98;99888.70;104142;1277;108886;-74
2022/06/22 00:03:10;;;;;;;0.40;0.20;;;;;;;15.62;63.69;99892.17;104053;1277;138565;-73
2022/06/22 00:05:48;;;;;;;0.40;0.20;;;;;;;15.68;63.50;99896.10;104267;1277;95278;-73
2022/06/22 00:08:20;;;;;;;0.40;0.20;;;;;;;15.68;63.32;99895.17;104435;1277;138348;-73
2022/06/22 00:10:54;;;;;;;0.40;0.20;;;;;;;15.74;63.29;99897.21;104153;1277;99898;-72
2022/06/22 00:13:25;;;;;;;0.40;0.20;;;;;;;15.74;63.03;99895.58;104181;1277;109306;-74
2022/06/22 00:16:00;;;;;;;0.40;0.20;;;;;;;15.73;62.96;99896.34;104216;1277;138316;-74
2022/06/22 00:18:50;;;;;;;0.40;0.20;;;;;;;15.67;63.14;99901.87;104357;1278;95671;-73
2022/06/22 00:21:29;;;;;;;0.40;0.20;;;;;;;15.65;63.07;99907.16;103984;1277;138775;-73
2022/06/22 00:24:00;;;;;;;0.40;0.20;;;;;;;15.64;63.23;99907.75;104081;1277;99421;-73
2022/06/22 00:26:33;;;;;;;0.40;0.20;;;;;;;15.65;63.11;99904.51;103960;1277;139005;-73
2022/06/22 00:29:04;;;;;;;0.40;0.20;;;;;;;15.58;63.08;99904.02;104347;1278;95640;-74
2022/06/22 00:31:41;;;;;;;0.40;0.20;;;;;;;15.51;63.31;99904.33;104162;1277;95165;-73
2022/06/22 00:34:09;;;;;;;0.40;0.20;;;;;;;15.49;63.69;99916.85;104037;1277;138430;-74
2022/06/22 00:36:46;;;;;;;0.40;0.20;;;;;;;15.54;63.35;99929.42;104101;1277;99361;-72
2022/06/22 00:39:22;;;;;;;0.40;0.20;;;;;;;15.52;63.33;99935.10;104022;1278;138778;-73
2022/06/22 00:41:56;;;;;;;0.40;0.20;;;;;;;15.48;63.46;99931.17;104011;1279;96130;-73
2022/06/22 00:44:30;;;;;;;0.40;0.20;;;;;;;15.33;63.76;99930.04;104005;1278;138851;-74
2022/06/22 00:47:04;;;;;;;0.40;0.20;;;;;;;15.33;63.88;99928.95;104172;1278;110430;-75
2022/06/22 00:49:32;;;;;;;0.40;0.20;;;;;;;15.40;63.76;99931.66;104152;1277;100196;-75
2022/06/22 00:52:08;;;;;;;0.40;0.20;;;;;;;15.39;63.84;99931.48;103993;1277;139016;-75
2022/06/22 00:54:37;;;;;;;0.40;0.30;;;;;;;15.38;63.64;99930.85;104345;1277;95189;-74
2022/06/22 00:57:13;;;;;;;0.40;0.20;;;;;;;15.31;63.88;99936.73;104026;1277;137946;-75
2022/06/22 01:00:04;;;;;;;0.40;0.20;;;;;;;15.25;64.01;99934.05;104107;1277;109719;-73
2022/06/22 01:02:53;;;;;;;0.40;0.20;;;;;;;15.15;64.59;99931.00;104284;1277;139784;-72
2022/06/22 01:05:30;;;;;;;0.40;0.20;;;;;;;15.18;64.43;99929.02;104584;1277;109366;-72
2022/06/22 01:08:03;;;;;;;0.40;0.20;;;;;;;15.16;64.20;99932.52;104543;1277;95498;-73
2022/06/22 01:10:38;;;;;;;0.40;0.20;;;;;;;15.14;64.29;99932.11;104327;1277;95518;-73
2022/06/22 01:13:13;;;;;;;0.40;0.20;;;;;;;15.06;64.39;99927.14;104255;1277;110300;-73
2022/06/22 01:15:51;;;;;;;0.40;0.20;;;;;;;15.04;64.72;99930.98;104132;1277;140132;-74
2022/06/22 01:18:28;;;;;;;0.40;0.20;;;;;;;15.08;64.33;99926.70;104197;1277;107782;-73
2022/06/22 01:21:02;;;;;;;0.40;0.20;;;;;;;15.00;64.68;99931.02;104122;1277;138652;-73
2022/06/22 01:23:48;;;;;;;0.40;0.20;;;;;;;14.96;64.68;99928.02;104172;1277;95549;-71
2022/06/22 01:26:35;;;;;;;0.40;0.20;;;;;;;14.98;64.64;99919.19;104214;1279;139722;-72
2022/06/22 01:29:16;;;;;;;0.40;0.20;;;;;;;14.98;64.88;99915.58;104389;1277;99692;-72
2022/06/22 01:31:50;;;;;;;0.40;0.20;;;;;;;15.11;64.63;99917.25;104303;1277;108563;-73
2022/06/22 01:34:20;;;;;;;0.40;0.20;;;;;;;15.17;64.38;99916.56;104272;1277;138975;-72
2022/06/22 01:36:48;;;;;;;0.40;0.20;;;;;;;15.15;64.32;99918.45;104315;1277;95433;-73
2022/06/22 01:39:16;;;;;;;0.40;0.20;;;;;;;15.12;64.38;99914.14;104108;1277;138610;-73
2022/06/22 01:41:49;;;;;;;0.40;0.20;;;;;;;15.11;64.53;99910.60;104251;1277;98988;-72
2022/06/22 01:44:37;;;;;;;0.40;0.20;;;;;;;15.13;64.69;99908.55;104038;1277;138415;-71
2022/06/22 01:47:35;;;;;;;0.40;0.20;;;;;;;15.11;64.66;99907.73;104205;1277;95528;-73
2022/06/22 01:50:19;;;;;;;0.40;0.20;;;;;;;15.08;64.64;99911.31;104144;1278;138923;-73
2022/06/22 01:53:12;;;;;;;0.40;0.20;;;;;;;15.04;64.76;99917.77;104133;1277;110223;-72
2022/06/22 01:55:50;;;;;;;0.40;0.20;;;;;;;14.96;64.96;99925.52;104206;1277;97585;-73
2022/06/22 01:58:18;;;;;;;0.40;0.30;;;;;;;14.86;65.29;99926.38;104074;1277;138928;-73
2022/06/22 02:00:51;;;;;;;0.40;0.20;;;;;;;14.83;65.60;99920.29;104295;1277;95138;-73
2022/06/22 02:03:47;;;;;;;0.40;0.20;;;;;;;14.82;65.61;99921.95;104148;1277;138809;-73
2022/06/22 02:09:24;;;;;;;0.40;0.20;;;;;;;14.86;65.54;99921.05;104197;1277;138781;-74
2022/06/22 02:12:18;;;;;;;0.40;0.20;;;;;;;14.69;65.91;99924.58;104265;1277;109380;-71
2022/06/22 02:14:49;;;;;;;0.40;0.30;;;;;;;14.60;66.31;99924.83;104179;1277;139521;-72
2022/06/22 02:17:22;;;;;;;0.40;0.30;;;;;;;14.63;66.39;99925.24;104358;1277;95513;-74
2022/06/22 02:20:18;;;;;;;0.40;0.20;;;;;;;14.62;66.51;99927.59;104288;1277;109784;-73
2022/06/22 02:22:48;;;;;;;0.40;0.30;;;;;;;14.59;66.64;99932.96;104362;1277;99738;-73
2022/06/22 02:25:19;;;;;;;0.40;0.20;;;;;;;14.62;66.63;99937.63;104431;1277;107825;-73
2022/06/22 02:27:47;;;;;;;0.40;0.30;;;;;;;14.61;66.73;99941.91;105246;1277;139271;-72
2022/06/22 02:30:15;;;;;;;0.40;0.20;;;;;;;14.61;66.66;99941.04;104324;1277;95620;-72
2022/06/22 02:32:45;;;;;;;0.40;0.20;;;;;;;14.58;66.78;99941.21;104210;1277;139916;-73
2022/06/22 02:35:14;;;;;;;0.40;0.30;;;;;;;14.54;66.87;99947.83;104701;1277;99384;-72
2022/06/22 02:37:46;;;;;;;0.40;0.30;;;;;;;14.51;66.97;99949.02;104310;1277;108864;-73
2022/06/22 02:40:25;;;;;;;0.40;0.20;;;;;;;14.43;67.36;99951.73;104252;1277;139297;-72
2022/06/22 02:45:43;;;;;;;0.40;0.20;;;;;;;14.43;67.60;99948.91;104296;1277;140491;-72
2022/06/22 02:48:12;;;;;;;0.40;0.20;;;;;;;14.49;67.65;99947.16;104315;1277;97366;-73
2022/06/22 02:50:47;;;;;;;0.40;0.20;;;;;;;14.61;67.23;99950.52;104238;1277;138929;-72
2022/06/22 02:53:37;;;;;;;0.40;0.30;;;;;;;14.67;67.31;99947.94;104290;1277;95235;-73
2022/06/22 02:56:13;;;;;;;0.40;0.20;;;;;;;14.71;67.03;99951.10;104320;1277;139285;-73
2022/06/22 02:58:41;;;;;;;0.40;0.20;;;;;;;14.77;66.92;99956.73;104433;1277;109981;-73
2022/06/22 03:01:19;;;;;;;0.40;0.20;;;;;;;14.82;66.78;99960.91;104334;1277;99446;-73
2022/06/22 03:03:59;;;;;;;0.40;0.30;;;;;;;14.83;66.83;99961.40;104294;1276;138563;-72
2022/06/22 03:06:34;;;;;;;0.40;0.20;;;;;;;14.91;66.82;99963.33;104304;1277;95325;-73
2022/06/22 03:09:05;;;;;;;0.40;0.20;;;;;;;14.97;66.53;99966.44;104266;1277;139130;-72
2022/06/22 03:11:39;;;;;;;0.40;0.20;;;;;;;15.01;66.63;99964.79;104656;1279;109845;-73
2022/06/22 03:14:17;;;;;;;0.40;0.20;;;;;;;15.10;66.53;99959.16;104348;1276;139418;-74
2022/06/22 03:16:50;;;;;;;0.40;0.30;;;;;;;15.13;66.09;99954.67;104300;1277;108838;-73
2022/06/22 03:19:26;;;;;;;0.40;0.20;;;;;;;15.15;66.38;99951.53;104289;1277;95951;-72
2022/06/22 03:21:55;;;;;;;0.40;0.20;;;;;;;15.23;66.26;99941.83;104183;1279;141004;-72
2022/06/22 03:24:37;;;;;;;0.40;0.20;;;;;;;15.30;65.93;99938.05;104353;1277;107894;-73
2022/06/22 03:27:19;;;;;;;0.40;0.20;;;;;;;15.33;65.83;99941.48;104118;1279;138829;-73
2022/06/22 03:29:52;;;;;;;0.40;0.20;;;;;;;15.29;66.07;99938.13;104295;1277;109016;-73
2022/06/22 03:32:31;;;;;;;0.40;0.30;;;;;;;15.28;66.16;99941.90;104102;1277;138916;-74
2022/06/22 03:35:10;;;;;;;0.40;0.20;;;;;;;15.31;66.22;99941.96;104276;1277;95095;-73
2022/06/22 03:38:04;;;;;;;0.40;0.20;;;;;;;15.38;66.01;99946.60;104265;1277;109781;-72
2022/06/22 03:40:40;;;;;;;0.40;0.20;;;;;;;15.29;66.24;99943.67;104254;1277;99567;-72
2022/06/22 03:43:33;;;;;;;0.40;0.30;;;;;;;15.25;66.48;99956.05;104344;1277;109018;-72
2022/06/22 03:46:11;;;;;;;0.40;0.30;;;;;;;15.32;66.55;99965.11;104154;1277;139745;-72
2022/06/22 03:49:06;;;;;;;0.40;0.30;;;;;;;15.49;66.53;99965.33;104259;1277;95139;-73
2022/06/22 03:51:50;;;;;;;0.40;0.20;;;;;;;15.64;65.82;99959.32;104144;1277;139244;-73
2022/06/22 03:54:46;;;;;;;0.40;0.20;;;;;;;15.65;65.88;99960.32;104707;1277;99455;-72
2022/06/22 03:57:21;;;;;;;0.40;0.30;;;;;;;15.62;65.85;99960.84;104241;1277;139068;-72
2022/06/22 03:59:50;;;;;;;0.40;0.20;;;;;;;15.56;66.12;99966.89;104277;1277;96272;-71
2022/06/22 04:02:19;;;;;;;0.40;0.30;;;;;;;15.61;66.48;99972.54;104010;1278;139265;-72
2022/06/22 04:04:52;;;;;;;0.40;0.20;;;;;;;15.69;66.18;99977.67;105135;1276;109821;-72
2022/06/22 04:07:23;;;;;;;0.40;0.20;;;;;;;15.68;65.99;99975.36;104266;1277;99557;-72
2022/06/22 04:09:58;;;;;;;0.40;0.20;;;;;;;15.64;66.17;99982.05;104171;1277;138450;-71
2022/06/22 04:12:43;;;;;;;0.40;0.20;;;;;;;15.59;66.21;99987.87;104253;1277;95653;-73
2022/06/22 04:15:17;;;;;;;0.40;0.20;;;;;;;15.54;66.47;99988.65;104149;1277;138618;-72
2022/06/22 04:17:50;;;;;;;0.40;0.30;;;;;;;15.55;66.59;99989.66;104210;1277;109929;-72
2022/06/22 04:20:50;;;;;;;0.40;0.30;;;;;;;15.63;66.64;99986.20;104118;1277;139138;-72
2022/06/22 04:23:30;;;;;;;0.40;0.20;;;;;;;15.75;66.50;99981.83;104216;1277;108811;-72
2022/06/22 04:26:05;;;;;;;0.40;0.20;;;;;;;15.90;66.07;99984.63;104217;1277;95145;-73
2022/06/22 04:28:36;;;;;;;0.40;0.20;;;;;;;15.96;65.88;99982.69;104273;1277;95138;-73
2022/06/22 04:31:10;;;;;;;0.40;0.20;;;;;;;15.96;65.75;99978.54;104237;1277;110894;-73
2022/06/22 04:33:45;;;;;;;0.40;0.20;;;;;;;16.02;65.79;99976.61;104128;1277;139249;-72
2022/06/22 04:36:19;;;;;;;0.40;0.20;;;;;;;16.05;65.52;99977.48;104275;1277;108898;-72
2022/06/22 04:39:23;;;;;;;0.40;0.20;;;;;;;16.10;65.45;99977.79;104127;1277;137881;-72
2022/06/22 04:41:52;;;;;;;0.40;0.20;;;;;;;16.14;65.57;99978.27;104541;1277;95225;-71
2022/06/22 04:44:31;;;;;;;0.40;0.20;;;;;;;16.22;65.42;99977.81;104280;1277;139171;-72
2022/06/22 04:47:12;;;;;;;0.40;0.20;;;;;;;16.26;65.42;99983.86;104242;1277;99985;-73
2022/06/22 04:49:54;;;;;;;0.40;0.20;;;;;;;16.36;65.13;99985.77;104201;1277;109071;-72
2022/06/22 04:52:29;;;;;;;0.40;0.20;;;;;;;16.38;64.88;99983.14;104163;1277;138780;-72
2022/06/22 04:55:01;;;;;;;0.40;0.20;;;;;;;16.42;64.87;99985.98;104430;1277;95247;-71
2022/06/22 04:57:37;;;;;;;0.40;0.20;;;;;;;16.51;64.64;99989.75;104191;1277;139652;-72
2022/06/22 05:00:13;;;;;;;0.40;0.20;;;;;;;16.63;64.26;99988.04;104291;1277;99737;-72
2022/06/22 05:02:44;;;;;;;0.40;0.20;;;;;;;16.68;64.22;99985.92;104173;1277;138890;-73
2022/06/22 05:05:26;;;;;;;0.40;0.20;;;;;;;16.74;64.19;99984.32;104251;1277;95297;-71
2022/06/22 05:08:01;;;;;;;0.40;0.20;;;;;;;16.81;64.06;99984.66;104637;1277;95227;-73
2022/06/22 05:10:42;;;;;;;0.40;0.20;;;;;;;16.92;63.84;99988.67;104181;1277;108541;-72
2022/06/22 05:13:18;;;;;;;0.40;0.20;;;;;;;17.04;63.60;99996.58;104260;1277;99685;-72
2022/06/22 05:15:49;;;;;;;0.40;0.20;;;;;;;17.09;63.25;100000.23;104106;1277;138061;-73
2022/06/22 05:18:21;;;;;;;0.40;0.20;;;;;;;17.11;63.21;100000.45;104268;1277;95364;-72
2022/06/22 05:21:35;;;;;;;0.40;0.20;;;;;;;17.19;63.14;99999.48;103724;1277;598101;-72
2022/06/22 05:24:14;;;;;;;0.40;0.20;;;;;;;17.25;62.82;99993.00;104048;1277;109167;-73
2022/06/22 05:26:42;;;;;;;0.40;0.20;;;;;;;17.37;62.90;99995.33;104105;1277;139208;-73
2022/06/22 05:29:15;;;;;;;0.40;0.20;;;;;;;17.44;62.72;100001.75;104494;1277;108845;-72
2022/06/22 05:31:49;;;;;;;0.40;0.20;;;;;;;17.48;62.47;100000.21;104414;1277;95433;-72
2022/06/22 05:34:26;;;;;;;0.40;0.20;;;;;;;17.52;62.22;99997.98;104110;1280;138688;-73
2022/06/22 05:36:59;;;;;;;0.40;0.20;;;;;;;17.55;61.96;100002.09;104198;1277;109844;-72
2022/06/22 05:39:28;;;;;;;0.40;0.20;;;;;;;17.57;61.99;100005.41;104168;1277;138755;-72
2022/06/22 05:41:56;;;;;;;0.40;0.20;;;;;;;17.62;62.13;99996.65;104203;1277;109083;-72
2022/06/22 05:44:24;;;;;;;0.40;0.20;;;;;;;17.68;62.03;99999.17;104107;1277;138707;-72
2022/06/22 05:46:55;;;;;;;0.40;0.20;;;;;;;17.74;61.78;100000.77;104228;1277;95229;-72
2022/06/22 05:50:11;;;;;;;0.40;0.20;;;;;;;17.76;61.44;100007.14;104251;1277;108676;-72
2022/06/22 05:52:46;;;;;;;0.40;0.20;;;;;;;17.74;61.58;100017.14;103620;1284;99431;-72
2022/06/22 05:55:18;;;;;;;0.40;0.20;;;;;;;17.83;61.75;100013.50;103737;1284;107784;-74
2022/06/22 05:57:56;;;;;;;0.40;0.20;;;;;;;17.92;61.79;100011.33;103794;1277;139076;-73
2022/06/22 06:00:34;;;;;;;0.40;0.10;;;;;;;18.10;61.60;100008.08;104218;1277;95291;-73
2022/06/22 06:03:12;;;;;;;0.40;0.20;;;;;;;18.22;61.59;100004.58;104040;1280;138111;-73
2022/06/22 06:05:48;;;;;;;0.40;0.20;;;;;;;18.35;61.35;99998.38;104783;1277;99395;-72
2022/06/22 06:08:24;;;;;;;0.40;0.20;;;;;;;18.43;60.96;99995.33;104140;1277;138168;-72
2022/06/22 06:10:53;;;;;;;0.40;0.20;;;;;;;18.43;60.79;99994.08;104130;1277;95739;-72
2022/06/22 06:13:33;;;;;;;0.40;0.20;;;;;;;18.43;60.58;99998.01;104110;1277;95551;-73
2022/06/22 06:16:05;;;;;;;0.40;0.20;;;;;;;18.45;60.37;100002.40;104076;1279;137978;-73
2022/06/22 06:18:40;;;;;;;0.40;0.20;;;;;;;18.44;60.31;100009.10;104170;1277;99455;-72
2022/06/22 06:21:22;;;;;;;0.40;0.20;;;;;;;18.48;60.60;100010.46;104082;1277;138097;-72
2022/06/22 06:23:56;;;;;;;0.40;0.20;;;;;;;18.52;60.69;100012.69;104184;1277;95257;-73
2022/06/22 06:29:56;;;;;;;0.40;0.20;;;;;;;18.61;60.06;100010.86;104166;1280;109706;-73
2022/06/22 06:33:01;;;;;;;0.40;0.10;;;;;;;18.60;60.20;100010.73;104067;1277;138421;-74
2022/06/22 06:35:36;;;;;;;0.40;0.20;;;;;;;18.63;60.36;100013.04;103823;1277;107515;-72
2022/06/22 06:38:16;;;;;;;0.40;0.20;;;;;;;18.68;60.55;100006.83;104234;1277;139627;-72
2022/06/22 06:40:50;;;;;;;0.40;0.20;;;;;;;18.80;60.52;100001.54;104332;1277;95152;-73
2022/06/22 06:43:36;;;;;;;0.40;0.20;;;;;;;18.81;60.09;99997.86;104338;1277;109728;-73
2022/06/22 06:46:13;;;;;;;0.40;0.10;;;;;;;18.82;59.91;99997.98;104403;1277;138654;-72
2022/06/22 06:48:49;;;;;;;0.40;0.20;;;;;;;18.93;60.11;99996.91;104352;1277;109159;-72
2022/06/22 06:51:20;;;;;;;0.40;0.10;;;;;;;18.99;59.94;99989.98;104142;1277;138828;-72
2022/06/22 06:54:06;;;;;;;0.40;0.10;;;;;;;19.08;60.06;99991.41;104934;1277;95614;-73
2022/06/22 06:56:50;;;;;;;0.40;0.10;;;;;;;19.10;59.21;99989.14;104218;1277;139230;-73
2022/06/22 06:59:24;;;;;;;0.40;0.10;;;;;;;19.05;59.53;99994.48;104425;1277;99354;-72
2022/06/22 07:01:52;;;;;;;0.40;0.20;;;;;;;19.12;59.91;99999.08;104519;1277;108802;-72
2022/06/22 07:04:30;;;;;;;0.40;0.20;;;;;;;19.17;59.67;100000.17;104684;1277;137972;-72
2022/06/22 07:07:40;;;;;;;0.40;0.10;;;;;;;19.16;59.30;99997.69;104309;1277;95842;-72
2022/06/22 07:10:17;;;;;;;0.40;0.10;;;;;;;19.26;59.26;99997.94;104189;1277;138657;-72
2022/06/22 07:12:52;;;;;;;0.40;0.10;;;;;;;19.36;59.22;100000.23;104356;1277;98357;-72
2022/06/22 07:15:24;;;;;;;0.40;0.20;;;;;;;19.45;59.14;100003.45;104263;1277;139042;-72
2022/06/22 07:17:54;;;;;;;0.40;0.10;;;;;;;19.49;58.53;100000.97;104768;1277;95213;-71
2022/06/22 07:20:30;;;;;;;0.40;0.10;;;;;;;19.57;58.60;99995.59;104636;1279;138224;-73
2022/06/22 07:23:20;;;;;;;0.40;0.20;;;;;;;19.59;58.02;99992.02;104253;1279;109304;-72
2022/06/22 07:25:57;;;;;;;0.40;0.10;;;;;;;19.60;58.05;99992.90;104320;1278;99416;-72
2022/06/22 07:29:17;;;;;;;0.40;0.10;;;;;;;19.67;58.29;99995.26;104252;1279;108751;-71
2022/06/22 07:31:54;;;;;;;0.40;0.10;;;;;;;19.74;57.55;99995.81;103812;1279;95274;-73
2022/06/22 07:34:29;;;;;;;0.40;0.10;;;;;;;19.79;57.64;99996.76;104213;1279;137935;-73
2022/06/22 07:37:08;;;;;;;0.40;0.10;;;;;;;19.87;57.96;100000.01;104359;1279;109675;-73
2022/06/22 07:39:42;;;;;;;0.40;0.10;;;;;;;19.89;57.65;99999.83;104176;1277;138971;-73
2022/06/22 07:42:12;;;;;;;0.40;0.10;;;;;;;20.05;57.55;99994.73;104210;1279;109337;-73
2022/06/22 07:44:42;;;;;;;0.40;0.10;;;;;;;20.20;57.71;99993.64;104227;1280;138528;-73
2022/06/22 07:47:38;;;;;;;0.40;0.20;;;;;;;20.27;55.90;99994.02;104320;1278;95651;-71
2022/06/22 07:50:14;;;;;;;0.40;0.10;;;;;;;20.28;56.28;99992.20;104214;1279;138825;-72
2022/06/22 07:52:51;;;;;;;0.40;0.10;;;;;;;20.44;56.48;99997.32;104357;1279;99388;-72
2022/06/22 07:55:31;;;;;;;0.40;0.10;;;;;;;20.53;56.02;99995.02;104302;1280;108011;-71
2022/06/22 07:58:14;;;;;;;0.40;0.10;;;;;;;20.57;55.78;99995.98;104371;1279;138133;-73
2022/06/22 08:00:45;;;;;;;0.40;0.10;;;;;;;20.67;55.63;99997.92;104345;1279;95140;-72
2022/06/22 08:03:37;;;;;;;0.40;0.10;;;;;;;20.74;55.92;100000.85;104433;1279;137947;-72
2022/06/22 08:06:10;;;;;;;0.40;0.10;;;;;;;20.81;55.30;99999.65;104429;1279;98614;-72
2022/06/22 08:08:45;;;;;;;0.40;0.10;;;;;;;20.78;55.31;99998.41;105072;1279;138107;-72
2022/06/22 08:11:37;;;;;;;0.40;0.10;;;;;;;20.83;55.10;99995.89;104358;1280;95225;-72
2022/06/22 08:14:20;;;;;;;0.40;0.10;;;;;;;20.97;55.11;99995.52;104333;1280;138149;-73
2022/06/22 08:17:00;;;;;;;0.40;0.10;;;;;;;21.19;55.42;100002.89;104366;1279;108809;-73
2022/06/22 08:19:30;;;;;;;0.40;0.10;;;;;;;21.28;54.64;100007.44;104611;1277;100040;-73
2022/06/22 08:22:04;;;;;;;0.40;0.10;;;;;;;21.32;54.12;100008.23;104294;1277;139179;-73
2022/06/22 08:24:37;;;;;;;0.40;0.10;;;;;;;21.31;53.14;100011.50;104409;1277;95230;-72
2022/06/22 08:27:12;;;;;;;0.40;0.10;;;;;;;21.35;53.18;100008.16;104421;1277;138183;-72
2022/06/22 08:29:41;;;;;;;0.40;0.10;;;;;;;21.46;53.11;100009.30;104357;1276;109722;-72
2022/06/22 08:32:35;;;;;;;0.40;0.10;;;;;;;21.64;52.86;100005.70;104224;1277;138444;-72
2022/06/22 08:35:07;;;;;;;0.40;0.10;;;;;;;21.71;52.16;99996.14;104318;1277;108811;-72
2022/06/22 08:37:59;;;;;;;0.40;0.10;;;;;;;22.00;52.41;99993.52;104288;1277;95236;-73
2022/06/22 08:40:49;;;;;;;0.40;0.10;;;;;;;22.15;51.27;99991.35;104617;1277;95158;-72
2022/06/22 08:43:34;;;;;;;0.40;0.10;;;;;;;22.05;50.69;99997.59;104379;1277;110021;-72
2022/06/22 08:46:37;;;;;;;0.40;0.10;;;;;;;22.01;50.61;99993.24;104693;1277;138503;-73
2022/06/22 08:49:30;;;;;;;0.40;0.10;;;;;;;22.19;50.69;99988.32;104354;1277;109061;-73
2022/06/22 08:52:12;;;;;;;0.40;0.10;;;;;;;22.38;51.24;99987.86;104190;1277;138752;-73
2022/06/22 08:54:58;;;;;;;0.40;0.10;;;;;;;22.48;51.53;99992.86;104341;1277;95159;-73
2022/06/22 08:57:38;;;;;;;0.40;0.10;;;;;;;22.58;51.22;99992.30;104251;1277;137920;-73
2022/06/22 09:00:23;;;;;;;0.40;0.10;;;;;;;22.56;50.70;99991.49;104325;1277;98553;-72
2022/06/22 09:03:13;;;;;;;0.40;0.10;;;;;;;22.78;50.70;99993.26;104520;1277;137852;-72
2022/06/22 09:06:16;;;;;;;0.40;0.10;;;;;;;22.89;48.99;99998.73;104261;1277;96890;-73
2022/06/22 09:08:54;;;;;;;0.40;0.10;;;;;;;22.73;49.27;99999.70;104356;1277;138508;-74
2022/06/22 09:11:33;;;;;;;0.40;0.10;;;;;;;22.55;48.63;100000.60;104378;1277;109918;-74
2022/06/22 09:14:29;;;;;;;0.40;0.10;;;;;;;22.72;49.08;99998.63;104161;1277;138850;-74
2022/06/22 09:16:57;;;;;;;0.40;0.10;;;;;;;23.13;48.06;99999.57;104434;1277;109647;-73
2022/06/22 09:20:09;;;;;;;0.40;0.10;;;;;;;23.44;47.78;99999.48;104254;1277;95231;-73
2022/06/22 09:23:00;;;;;;;0.40;0.10;;;;;;;24.27;45.74;99999.45;104370;1277;95150;-74
2022/06/22 09:25:50;;;;;;;0.40;0.10;;;;;;;25.42;44.18;100000.71;104266;1277;109395;-72
2022/06/22 09:28:28;;;;;;;0.40;0.10;;;;;;;25.61;43.01;100011.70;104246;1277;138109;-73
2022/06/22 09:31:22;;;;;;;0.40;0.10;;;;;;;26.45;42.27;100003.69;104942;1277;106776;-74
2022/06/22 09:34:17;;;;;;;0.40;0.10;;;;;;;27.86;38.08;99992.81;104166;1277;138209;-73
2022/06/22 09:37:10;;;;;;;0.40;0.10;;;;;;;28.66;36.60;99994.34;104279;1279;95210;-73
2022/06/22 09:40:03;;;;;;;0.40;0.00;;;;;;;29.38;34.93;99993.77;104163;1277;138923;-75
2022/06/22 09:42:49;;;;;;;0.40;0.00;;;;;;;28.80;35.09;99994.66;104273;1277;97876;-73
2022/06/22 09:45:36;;;;;;;0.40;0.10;;;;;;;28.31;36.29;99999.55;104130;1277;137923;-74
2022/06/22 09:48:13;;;;;;;0.40;0.00;;;;;;;29.24;34.57;99993.06;104255;1280;95207;-74
2022/06/22 09:51:13;;;;;;;0.40;0.00;;;;;;;30.02;33.22;99993.10;104185;1280;138260;-71
2022/06/22 09:54:01;;;;;;;0.40;0.00;;;;;;;29.50;33.74;99998.27;104233;1277;109848;-72
2022/06/22 09:57:10;;;;;;;0.40;0.00;;;;;;;30.44;32.11;99999.11;104141;1277;138335;-71
2022/06/22 09:59:50;;;;;;;0.40;0.00;;;;;;;31.29;30.88;99999.90;103703;1280;109499;-72
2022/06/22 10:02:24;;;;;;;0.40;0.00;;;;;;;30.98;30.70;100001.95;104169;1278;139584;-73
2022/06/22 10:05:16;;;;;;;0.40;0.00;;;;;;;31.43;31.13;100001.19;104264;1277;96761;-72
2022/06/22 10:07:59;;;;;;;0.40;0.00;;;;;;;32.43;29.83;100008.21;104205;1278;109731;-70
2022/06/22 10:10:43;;;;;;;0.40;0.00;;;;;;;33.01;28.94;100004.73;104306;1277;99458;-72
2022/06/22 10:13:31;;;;;;;0.40;0.00;;;;;;;32.83;29.31;100002.09;104235;1279;108854;-71
2022/06/22 10:16:45;;;;;;;0.40;0.00;;;;;;;33.25;28.40;100007.02;104106;1277;138278;-71
2022/06/22 10:19:28;;;;;;;0.40;0.00;;;;;;;33.98;27.65;100004.40;104282;1278;95525;-73
2022/06/22 10:22:07;;;;;;;0.40;0.00;;;;;;;34.23;26.04;100003.29;104144;1279;138638;-73
2022/06/22 10:24:41;;;;;;;0.40;0.00;;;;;;;34.32;26.24;100002.32;104299;1277;99584;-71
2022/06/22 10:27:30;;;;;;;0.40;0.00;;;;;;;33.91;26.34;100007.91;104214;1277;138557;-71
2022/06/22 10:30:18;;;;;;;0.40;0.00;;;;;;;33.52;25.79;100004.30;104217;1277;95217;-72
2022/06/22 10:33:05;;;;;;;0.40;0.00;;;;;;;33.85;25.53;100014.04;104193;1277;138068;-71
2022/06/22 10:35:45;;;;;;;0.40;0.00;;;;;;;34.40;25.70;100010.83;104208;1277;109698;-72
2022/06/22 10:38:24;;;;;;;0.40;0.00;;;;;;;34.85;25.16;100011.78;104146;1277;138448;-71
2022/06/22 10:47:07;;;;;;;0.40;0.00;;;;;;;36.07;22.99;100009.41;104252;1278;95829;-71
2022/06/22 10:49:56;;;;;;;0.40;0.00;;;;;;;36.34;23.10;100010.79;104227;1277;108608;-71
2022/06/22 10:52:55;;;;;;;0.40;0.00;;;;;;;36.57;22.45;100002.27;104218;1279;99582;-71
2022/06/22 10:55:55;;;;;;;0.40;0.00;;;;;;;36.48;22.91;99996.48;104228;1277;109444;-71
2022/06/22 10:58:38;;;;;;;0.40;0.00;;;;;;;36.60;22.54;100000.09;103460;1283;137977;-72
2022/06/22 11:01:12;;;;;;;0.40;0.00;;;;;;;36.61;22.07;99992.48;104331;1277;95588;-71
2022/06/22 11:04:01;;;;;;;0.40;0.00;;;;;;;36.67;21.47;99992.79;104145;1278;138389;-71
2022/06/22 11:06:32;;;;;;;0.40;0.00;;;;;;;35.74;21.05;99994.76;104292;1277;98852;-71
2022/06/22 11:09:27;;;;;;;0.40;0.00;;;;;;;34.73;22.43;99997.86;104143;1277;138433;-70
2022/06/22 11:12:13;;;;;;;0.40;0.00;;;;;;;33.39;24.27;99995.44;104247;1277;95162;-72
2022/06/22 11:14:59;;;;;;;0.40;0.00;;;;;;;32.57;25.65;99995.03;104197;1277;138099;-71
2022/06/22 11:17:46;;;;;;;0.40;0.00;;;;;;;31.69;26.55;99991.06;104273;1277;109855;-71
2022/06/22 11:20:23;;;;;;;0.40;0.00;;;;;;;31.09;27.43;99992.86;104154;1277;138244;-72
2022/06/22 11:23:00;;;;;;;0.40;0.00;;;;;;;30.59;27.40;99995.48;104192;1280;109674;-72
2022/06/22 11:32:05;;;;;;;0.40;0.00;;;;;;;28.92;28.79;99993.67;104308;1277;109909;-73
2022/06/22 11:34:51;;;;;;;0.40;0.00;;;;;;;28.58;30.29;99991.89;104331;1277;99403;-71
2022/06/22 11:37:30;;;;;;;0.40;0.00;;;;;;;28.44;31.09;99991.79;104282;1277;108992;-72
2022/06/22 11:40:39;;;;;;;0.40;0.00;;;;;;;28.24;31.82;99987.33;104164;1277;138154;-71
2022/06/22 11:43:13;;;;;;;0.40;0.00;;;;;;;28.00;31.68;99985.68;104262;1277;95268;-71
2022/06/22 11:46:05;;;;;;;0.40;0.00;;;;;;;27.79;32.10;99986.73;104194;1278;138388;-70
2022/06/22 11:49:01;;;;;;;0.40;0.00;;;;;;;27.64;32.18;99982.64;104673;1277;99443;-72
2022/06/22 11:51:57;;;;;;;0.40;0.00;;;;;;;27.47;32.84;99987.04;104106;1280;138482;-71
2022/06/22 11:54:40;;;;;;;0.40;0.00;;;;;;;27.17;33.30;99989.20;104233;1277;96040;-73
2022/06/22 11:57:39;;;;;;;0.40;0.00;;;;;;;27.06;33.66;99987.23;104181;1277;138461;-71
2022/06/22 12:00:28;;;;;;;0.40;0.00;;;;;;;26.89;33.30;99992.27;104253;1280;110028;-72
2022/06/22 12:03:18;;;;;;;0.40;0.00;;;;;;;26.75;33.65;99986.87;104134;1277;138236;-71
2022/06/22 12:06:10;;;;;;;0.40;0.00;;;;;;;26.64;34.30;99988.19;104260;1277;108928;-72
2022/06/22 12:09:00;;;;;;;0.40;0.00;;;;;;;26.52;34.64;99993.86;104275;1277;138910;-71
2022/06/22 12:11:48;;;;;;;0.40;0.00;;;;;;;26.37;33.69;100004.30;104291;1277;95216;-71
2022/06/22 12:17:56;;;;;;;0.40;0.00;;;;;;;26.33;35.33;100000.48;104000;1277;99562;-71
2022/06/22 12:20:42;;;;;;;0.40;0.00;;;;;;;26.30;34.09;99999.11;104127;1280;138068;-73
2022/06/22 12:23:40;;;;;;;0.40;0.00;;;;;;;26.29;34.09;99995.98;104273;1280;95335;-71
2022/06/22 12:26:18;;;;;;;0.40;0.00;;;;;;;26.23;33.97;100000.94;104072;1280;138181;-73
2022/06/22 12:29:08;;;;;;;0.40;0.00;;;;;;;26.20;35.05;99997.55;104235;1279;109645;-71
2022/06/22 12:31:41;;;;;;;0.40;0.00;;;;;;;26.12;34.31;100002.91;104358;1279;99552;-72
2022/06/22 12:34:39;;;;;;;0.40;0.00;;;;;;;26.03;34.75;100001.02;104225;1280;110067;-71
2022/06/22 12:37:16;;;;;;;0.40;0.00;;;;;;;25.98;34.83;99995.31;104293;1279;95244;-72
2022/06/22 12:39:50;;;;;;;0.40;0.00;;;;;;;25.87;35.42;99995.30;104162;1280;138093;-71
2022/06/22 12:42:27;;;;;;;0.40;0.00;;;;;;;25.86;33.61;99997.73;104339;1280;107898;-74
2022/06/22 12:45:11;;;;;;;0.40;0.00;;;;;;;25.83;34.00;99992.27;104142;1279;139118;-72